createdAt,value
2023-04-21T00:00:00.206Z,4.45
2023-04-21T00:02:27.693Z,3.08
2023-04-21T00:04:56.504Z,4.63
2023-04-21T00:07:23.348Z,3.43
2023-04-21T00:09:50.019Z,0.92
2023-04-21T00:12:16.973Z,2.71
2023-04-21T00:14:44.187Z,2.35
2023-04-21T00:17:10.885Z,1.59
2023-04-21T00:19:37.827Z,2.05
2023-04-21T00:22:08.320Z,3.63
2023-04-21T00:24:35.116Z,1.09
2023-04-21T00:27:03.724Z,1.82
2023-04-21T00:29:30.680Z,1.32
2023-04-21T00:31:57.715Z,3.61
2023-04-21T00:34:24.532Z,2.06
2023-04-21T00:36:52.167Z,3.74
2023-04-21T00:39:19.047Z,4.02
2023-04-21T00:41:46.870Z,3.73
2023-04-21T00:44:13.853Z,4.46
2023-04-21T00:46:41.148Z,4.16
2023-04-21T00:49:08.204Z,3.80
2023-04-21T00:51:37.115Z,4.48
2023-04-21T00:54:09.406Z,3.79
2023-04-21T00:56:37.019Z,4.67
2023-04-21T00:59:04.215Z,2.24
2023-04-21T01:01:32.841Z,1.91
2023-04-21T01:04:00.990Z,2.70
2023-04-21T01:06:36.963Z,3.06
2023-04-21T01:09:05.375Z,2.33
2023-04-21T01:11:32.323Z,2.50
2023-04-21T01:14:00.401Z,3.23
2023-04-21T01:16:27.328Z,3.58
2023-04-21T01:18:54.060Z,3.80
2023-04-21T01:21:21.854Z,4.47
2023-04-21T01:23:49.260Z,4.66
2023-04-21T01:26:22.972Z,4.21
2023-04-21T01:28:50.240Z,2.50
2023-04-21T01:31:17.912Z,2.93
2023-04-21T01:33:45.370Z,4.15
2023-04-21T01:36:12.201Z,3.70
2023-04-21T01:38:42.710Z,3.48
2023-04-21T01:41:10.895Z,1.02
2023-04-21T01:43:38.206Z,3.10
2023-04-21T01:46:06.224Z,3.25
2023-04-21T01:48:33.194Z,2.46
2023-04-21T01:51:00.118Z,3.17
2023-04-21T01:53:27.147Z,2.42
2023-04-21T01:55:53.972Z,2.37
2023-04-21T01:58:22.256Z,4.22
2023-04-21T02:00:49.552Z,4.04
2023-04-21T02:03:16.642Z,3.65
2023-04-21T02:05:45.983Z,3.03
2023-04-21T02:08:12.963Z,3.29
2023-04-21T02:10:41.131Z,3.45
2023-04-21T02:13:11.634Z,2.82
2023-04-21T02:15:38.387Z,4.16
2023-04-21T02:18:06.576Z,2.72
2023-04-21T02:20:33.371Z,3.46
2023-04-21T02:23:00.951Z,3.84
2023-04-21T02:25:28.259Z,2.79
2023-04-21T02:27:55.046Z,1.96
2023-04-21T02:30:21.886Z,0.45
2023-04-21T02:32:48.746Z,0.32
2023-04-21T02:35:15.686Z,3.39
2023-04-21T02:37:42.365Z,3.68
2023-04-21T02:40:09.771Z,4.09
2023-04-21T02:42:36.565Z,1.73
2023-04-21T02:45:03.644Z,2.36
2023-04-21T02:47:30.749Z,3.53
2023-04-21T02:49:57.483Z,2.48
2023-04-21T02:52:24.885Z,1.83
2023-04-21T02:54:51.672Z,0.72
2023-04-21T02:57:18.481Z,3.04
2023-04-21T02:59:45.965Z,1.44
2023-04-21T03:02:12.786Z,3.20
2023-04-21T03:04:39.605Z,2.54
2023-04-21T03:07:12.020Z,3.78
2023-04-21T03:09:39.886Z,2.47
2023-04-21T03:12:06.986Z,2.19
2023-04-21T03:14:36.784Z,1.71
2023-04-21T03:17:03.648Z,3.38
2023-04-21T03:19:31.375Z,3.63
2023-04-21T03:21:58.091Z,4.23
2023-04-21T03:24:24.913Z,4.27
2023-04-21T03:26:51.948Z,2.92
2023-04-21T03:29:19.105Z,4.31
2023-04-21T03:31:46.119Z,3.71
2023-04-21T03:34:12.931Z,2.84
2023-04-21T03:36:39.699Z,1.74
2023-04-21T03:39:19.314Z,0.84
2023-04-21T03:41:48.232Z,0.53
2023-04-21T03:44:15.282Z,1.25
2023-04-21T03:46:41.997Z,2.47
2023-04-21T03:49:08.777Z,3.82
2023-04-21T03:51:35.616Z,3.36
2023-04-21T03:54:02.424Z,1.91
2023-04-21T03:56:30.500Z,0.11
2023-04-21T03:58:57.251Z,1.94
2023-04-21T04:01:23.989Z,3.36
2023-04-21T04:03:50.977Z,3.13
2023-04-21T04:06:18.030Z,3.89
2023-04-21T04:08:45.064Z,3.80
2023-04-21T04:11:11.828Z,1.31
2023-04-21T04:13:38.656Z,2.48
2023-04-21T04:16:06.236Z,2.40
2023-04-21T04:18:32.908Z,2.90
2023-04-21T04:21:06.245Z,2.33
2023-04-21T04:23:33.761Z,2.81
2023-04-21T04:26:01.694Z,3.14
2023-04-21T04:28:28.934Z,3.94
2023-04-21T04:30:55.792Z,3.11
2023-04-21T04:33:22.622Z,2.29
2023-04-21T04:35:49.409Z,1.85
2023-04-21T04:38:16.451Z,1.75
2023-04-21T04:40:43.620Z,1.79
2023-04-21T04:43:12.999Z,2.30
2023-04-21T04:45:39.718Z,3.35
2023-04-21T04:48:07.517Z,4.18
2023-04-21T04:50:34.394Z,1.80
2023-04-21T04:53:01.490Z,2.76
2023-04-21T04:55:28.250Z,3.67
2023-04-21T04:57:54.964Z,3.87
2023-04-21T05:00:22.558Z,3.72
2023-04-21T05:02:49.488Z,3.37
2023-04-21T05:05:16.725Z,3.81
2023-04-21T05:07:43.532Z,1.97
2023-04-21T05:10:10.475Z,2.32
2023-04-21T05:12:38.011Z,2.86
2023-04-21T05:15:06.428Z,3.26
2023-04-21T05:17:34.190Z,4.94
2023-04-21T05:20:00.977Z,5.53
2023-04-21T05:22:27.808Z,4.26
2023-04-21T05:24:54.645Z,4.56
2023-04-21T05:27:21.574Z,4.19
2023-04-21T05:29:48.379Z,5.61
2023-04-21T05:32:15.475Z,5.01
2023-04-21T05:34:42.574Z,4.05
2023-04-21T05:37:11.798Z,3.53
2023-04-21T05:39:38.607Z,4.47
2023-04-21T05:42:05.618Z,3.71
2023-04-21T05:44:32.479Z,4.64
2023-04-21T05:46:59.214Z,5.72
2023-04-21T05:49:25.888Z,4.68
2023-04-21T05:51:53.227Z,4.06
2023-04-21T05:54:20.174Z,4.69
2023-04-21T05:56:48.380Z,5.61
2023-04-21T05:59:15.481Z,6.24
2023-04-21T06:01:43.172Z,5.45
2023-04-21T06:04:10.116Z,4.41
2023-04-21T06:06:37.184Z,5.08
2023-04-21T06:09:03.990Z,4.91
2023-04-21T06:11:30.960Z,3.02
2023-04-21T06:13:59.847Z,3.02
2023-04-21T06:16:27.172Z,5.02
2023-04-21T06:18:54.663Z,6.52
2023-04-21T06:21:21.894Z,6.87
2023-04-21T06:23:48.718Z,8.40
2023-04-21T06:26:15.684Z,3.37
2023-04-21T06:28:42.529Z,3.95
2023-04-21T06:31:15.280Z,5.92
2023-04-21T06:33:42.339Z,5.93
2023-04-21T06:36:09.097Z,5.12
2023-04-21T06:38:35.942Z,3.25
2023-04-21T06:41:04.652Z,6.11
2023-04-21T06:43:31.700Z,4.88
2023-04-21T06:45:58.464Z,6.05
2023-04-21T06:48:25.282Z,5.70
2023-04-21T06:50:52.470Z,6.20
2023-04-21T06:53:19.214Z,6.58
2023-04-21T06:55:46.378Z,4.52
2023-04-21T06:58:13.697Z,7.31
2023-04-21T07:00:40.470Z,6.82
2023-04-21T07:03:07.750Z,6.33
2023-04-21T07:05:34.640Z,5.57
2023-04-21T07:08:01.517Z,6.88
2023-04-21T07:10:29.276Z,8.43
2023-04-21T07:12:56.191Z,8.99
2023-04-21T07:15:23.279Z,7.32
2023-04-21T07:17:50.197Z,6.92
2023-04-21T07:20:18.800Z,8.04
2023-04-21T07:22:45.736Z,7.09
2023-04-21T07:25:12.737Z,7.26
2023-04-21T07:27:39.569Z,5.90
2023-04-21T07:30:07.960Z,7.95
2023-04-21T07:32:35.206Z,7.10
2023-04-21T07:35:03.165Z,6.36
2023-04-21T07:37:29.934Z,7.12
2023-04-21T07:39:56.697Z,9.00
2023-04-21T07:42:24.512Z,8.63
2023-04-21T07:44:51.322Z,5.93
2023-04-21T07:47:18.571Z,6.81
2023-04-21T07:49:45.681Z,7.28
2023-04-21T07:52:12.564Z,6.43
2023-04-21T07:54:39.631Z,7.83
2023-04-21T07:57:07.273Z,7.61
2023-04-21T07:59:34.033Z,8.11
2023-04-21T08:02:01.468Z,8.69
2023-04-21T08:04:28.357Z,9.32
2023-04-21T08:06:55.921Z,10.08
2023-04-21T08:09:23.527Z,8.99
2023-04-21T08:11:50.388Z,11.01
2023-04-21T08:14:17.608Z,10.87
2023-04-21T08:16:44.872Z,11.63
2023-04-21T08:19:11.737Z,11.06
2023-04-21T08:21:40.116Z,10.41
2023-04-21T08:24:07.197Z,10.42
2023-04-21T08:26:35.074Z,10.10
2023-04-21T08:29:04.393Z,9.92
2023-04-21T08:31:31.555Z,9.12
2023-04-21T08:34:01.756Z,9.73
2023-04-21T08:36:30.579Z,11.28
2023-04-21T08:38:58.220Z,10.56
2023-04-21T08:41:26.419Z,12.73
2023-04-21T08:43:53.897Z,10.74
2023-04-21T08:46:21.642Z,11.23
2023-04-21T08:48:48.910Z,12.98
2023-04-21T08:51:22.951Z,13.47
2023-04-21T08:53:50.448Z,10.47
2023-04-21T08:56:17.245Z,12.85
2023-04-21T08:58:43.984Z,10.87
2023-04-21T09:01:12.163Z,13.64
2023-04-21T09:03:39.288Z,12.01
2023-04-21T09:06:09.793Z,12.08
2023-04-21T09:08:52.581Z,13.64
2023-04-21T09:11:19.754Z,11.70
2023-04-21T09:13:46.516Z,11.13
2023-04-21T09:16:22.253Z,13.07
2023-04-21T09:18:51.699Z,11.66
2023-04-21T09:21:19.853Z,13.46
2023-04-21T09:23:51.354Z,13.35
2023-04-21T09:26:19.866Z,14.62
2023-04-21T09:28:48.441Z,12.56
2023-04-21T09:31:17.020Z,11.19
2023-04-21T09:33:57.752Z,12.43
2023-04-21T09:36:28.457Z,13.31
2023-04-21T09:39:24.424Z,13.68
2023-04-21T09:41:46.072Z,15.61
2023-04-21T09:44:12.861Z,18.41
2023-04-21T09:46:43.959Z,16.89
2023-04-21T09:49:13.893Z,15.78
2023-04-21T09:56:49.953Z,15.56
2023-04-21T09:59:23.733Z,18.08
2023-04-21T10:01:54.990Z,19.09
2023-04-21T10:04:23.814Z,16.71
2023-04-21T10:06:51.996Z,17.19
2023-04-21T10:09:22.821Z,19.82
2023-04-21T10:11:50.248Z,18.39
2023-04-21T10:14:17.226Z,17.87
2023-04-21T10:16:44.277Z,19.24
2023-04-21T10:19:28.157Z,19.72
2023-04-21T10:21:58.083Z,17.14
2023-04-21T10:24:28.931Z,16.06
2023-04-21T10:27:02.239Z,15.01
2023-04-21T10:29:40.185Z,17.26
2023-04-21T10:32:11.876Z,14.41
2023-04-21T10:34:39.165Z,16.64
2023-04-21T10:37:06.627Z,15.18
2023-04-21T10:39:45.555Z,13.34
2023-04-21T10:42:29.970Z,13.92
2023-04-21T10:44:56.632Z,14.50
2023-04-21T10:47:28.756Z,11.67
2023-04-21T10:50:00.578Z,15.80
2023-04-21T10:52:33.690Z,20.56
2023-04-21T10:55:00.419Z,23.30
2023-04-21T10:57:32.828Z,20.53
2023-04-21T10:59:59.918Z,18.28
2023-04-21T11:02:27.799Z,18.74
2023-04-21T11:04:55.753Z,15.48
2023-04-21T11:07:26.943Z,15.90
2023-04-21T11:10:08.521Z,18.96
2023-04-21T11:12:38.612Z,20.54
2023-04-21T11:15:11.803Z,15.67
2023-04-21T11:17:40.517Z,18.21
2023-04-21T11:20:07.881Z,16.74
2023-04-21T11:22:36.994Z,22.52
2023-04-21T11:25:04.698Z,19.76
2023-04-21T11:27:31.471Z,21.64
2023-04-21T11:29:58.661Z,19.88
2023-04-21T11:32:25.582Z,21.51
2023-04-21T11:34:52.447Z,22.61
2023-04-21T11:37:27.170Z,20.42
2023-04-21T11:39:58.840Z,18.67
2023-04-21T11:42:25.897Z,18.08
2023-04-21T11:44:55.895Z,18.20
2023-04-21T11:47:24.749Z,19.43
2023-04-21T11:49:55.922Z,21.19
2023-04-21T11:52:23.865Z,21.36
2023-04-21T11:55:01.901Z,20.88
2023-04-21T11:57:31.062Z,21.67
2023-04-21T12:00:02.552Z,18.48
2023-04-21T12:02:32.876Z,21.58
2023-04-21T12:05:03.245Z,22.41
2023-04-21T12:07:32.253Z,19.27
2023-04-21T12:09:59.771Z,19.17
2023-04-21T12:12:27.450Z,19.67
2023-04-21T12:14:54.721Z,22.03
2023-04-21T12:17:21.654Z,20.40
2023-04-21T12:19:48.682Z,20.95
2023-04-21T12:22:23.643Z,17.19
2023-04-21T12:24:50.504Z,19.79
2023-04-21T12:27:19.133Z,19.08
2023-04-21T12:29:45.845Z,19.03
2023-04-21T12:32:12.968Z,19.72
2023-04-21T12:34:39.917Z,18.59
2023-04-21T12:37:06.928Z,17.32
2023-04-21T12:39:34.042Z,15.06
2023-04-21T12:42:01.587Z,19.23
2023-04-21T12:44:29.000Z,19.83
2023-04-21T12:46:57.798Z,16.68
2023-04-21T12:49:26.035Z,17.81
2023-04-21T12:51:53.090Z,19.37
2023-04-21T12:54:19.878Z,16.80
2023-04-21T12:56:46.959Z,17.43
2023-04-21T12:59:14.161Z,17.40
2023-04-21T13:01:43.007Z,16.44
2023-04-21T13:04:10.545Z,15.58
2023-04-21T13:06:39.095Z,18.51
2023-04-21T13:09:06.782Z,16.58
2023-04-21T13:11:33.997Z,15.87
2023-04-21T13:14:00.760Z,16.51
2023-04-21T13:16:30.183Z,18.46
2023-04-21T13:18:58.196Z,17.73
2023-04-21T13:21:25.116Z,14.79
2023-04-21T13:23:52.320Z,16.59
2023-04-21T13:26:19.151Z,16.75
2023-04-21T13:28:45.887Z,16.33
2023-04-21T13:31:14.707Z,15.25
2023-04-21T13:33:42.178Z,14.50
2023-04-21T13:36:12.576Z,20.08
2023-04-21T13:38:40.973Z,20.23
2023-04-21T13:41:09.055Z,18.18
2023-04-21T13:43:36.329Z,17.69
2023-04-21T13:46:03.163Z,16.08
2023-04-21T13:48:30.124Z,19.22
2023-04-21T13:50:57.249Z,19.83
2023-04-21T13:53:24.043Z,21.25
2023-04-21T13:55:51.259Z,17.12
2023-04-21T13:58:18.245Z,17.96
2023-04-21T14:00:45.029Z,15.55
2023-04-21T14:03:12.497Z,17.10
2023-04-21T14:05:40.177Z,18.31
2023-04-21T14:08:07.726Z,15.48
2023-04-21T14:10:34.546Z,17.56
2023-04-21T14:13:01.470Z,16.78
2023-04-21T14:15:28.959Z,16.21
2023-04-21T14:17:56.630Z,16.47
2023-04-21T14:20:24.206Z,18.25
2023-04-21T14:22:50.998Z,17.89
2023-04-21T14:25:18.032Z,17.41
2023-04-21T14:27:45.289Z,16.79
2023-04-21T14:30:14.054Z,17.19
2023-04-21T14:32:45.496Z,18.16
2023-04-21T14:35:13.693Z,16.43
2023-04-21T14:37:41.523Z,16.92
2023-04-21T14:40:09.207Z,18.49
2023-04-21T14:42:36.135Z,19.18
2023-04-21T14:45:02.871Z,17.32
2023-04-21T14:47:30.145Z,17.34
2023-04-21T14:49:57.827Z,18.70
2023-04-21T14:52:25.853Z,16.75
2023-04-21T14:54:53.282Z,18.35
2023-04-21T14:57:22.118Z,17.70
2023-04-21T14:59:50.803Z,17.74
2023-04-21T15:02:19.089Z,16.34
2023-04-21T15:04:46.450Z,17.40
2023-04-21T15:07:14.534Z,19.04
2023-04-21T15:09:45.719Z,17.12
2023-04-21T15:12:14.563Z,16.88
2023-04-21T15:14:41.816Z,17.56
2023-04-21T15:17:08.761Z,16.05
2023-04-21T15:19:35.692Z,18.29
2023-04-21T15:22:04.759Z,17.75
2023-04-21T15:24:31.805Z,19.07
2023-04-21T15:26:59.520Z,18.56
2023-04-21T15:29:26.812Z,18.81
2023-04-21T15:31:53.628Z,16.43
2023-04-21T15:34:20.461Z,18.60
2023-04-21T15:36:47.222Z,16.64
2023-04-21T15:39:14.649Z,17.23
2023-04-21T15:41:41.719Z,17.84
2023-04-21T15:44:08.732Z,16.11
2023-04-21T15:46:35.582Z,16.68
2023-04-21T15:49:02.507Z,16.87
2023-04-21T15:51:29.809Z,17.14
2023-04-21T15:53:56.987Z,14.69
2023-04-21T15:56:24.336Z,15.40
2023-04-21T15:58:51.078Z,16.89
2023-04-21T16:01:18.480Z,15.99
2023-04-21T16:03:46.451Z,15.09
2023-04-21T16:06:13.609Z,17.66
2023-04-21T16:08:40.554Z,15.01
2023-04-21T16:11:07.579Z,15.40
2023-04-21T16:13:34.706Z,14.87
2023-04-21T16:16:01.559Z,13.90
2023-04-21T16:18:28.928Z,12.92
2023-04-21T16:20:55.897Z,13.12
2023-04-21T16:23:24.592Z,13.11
2023-04-21T16:25:51.416Z,13.65
2023-04-21T16:28:18.356Z,13.14
2023-04-21T16:30:46.109Z,13.41
2023-04-21T16:33:15.234Z,13.65
2023-04-21T16:35:42.153Z,13.48
2023-04-21T16:38:09.547Z,13.29
2023-04-21T16:40:36.313Z,12.21
2023-04-21T16:43:03.166Z,12.15
2023-04-21T16:45:30.519Z,12.70
2023-04-21T16:47:57.942Z,12.07
2023-04-21T16:50:25.606Z,11.70
2023-04-21T16:52:52.339Z,12.00
2023-04-21T16:55:19.274Z,12.17
2023-04-21T16:57:46.577Z,12.74
2023-04-21T17:00:14.171Z,12.37
2023-04-21T17:02:41.122Z,11.33
2023-04-21T17:05:08.425Z,11.86
2023-04-21T17:07:35.390Z,11.32
2023-04-21T17:10:02.318Z,12.47
2023-04-21T17:12:29.309Z,10.87
2023-04-21T17:14:56.205Z,11.53
2023-04-21T17:17:23.420Z,12.05
2023-04-21T17:19:50.999Z,11.69
2023-04-21T17:22:17.819Z,11.19
2023-04-21T17:24:52.631Z,11.22
2023-04-21T17:27:21.133Z,13.19
2023-04-21T17:29:48.342Z,12.02
2023-04-21T17:32:16.082Z,12.51
2023-04-21T17:34:43.008Z,11.86
2023-04-21T17:37:10.043Z,12.39
2023-04-21T17:39:37.292Z,12.37
2023-04-21T17:42:04.996Z,12.15
2023-04-21T17:44:32.085Z,12.16
2023-04-21T17:46:59.844Z,11.63
2023-04-21T17:49:26.635Z,11.63
2023-04-21T17:51:53.745Z,11.43
2023-04-21T17:54:20.916Z,12.13
2023-04-21T17:56:47.751Z,12.46
2023-04-21T17:59:14.952Z,12.56
2023-04-21T18:01:41.837Z,13.35
2023-04-21T18:04:09.000Z,13.05
2023-04-21T18:06:36.735Z,12.07
2023-04-21T18:09:05.102Z,12.12
2023-04-21T18:11:32.422Z,12.66
2023-04-21T18:14:00.197Z,12.36
2023-04-21T18:16:27.363Z,10.91
2023-04-21T18:18:54.252Z,11.87
2023-04-21T18:21:21.352Z,10.38
2023-04-21T18:23:49.162Z,10.80
2023-04-21T18:26:16.924Z,10.70
2023-04-21T18:28:43.769Z,11.38
2023-04-21T18:31:10.839Z,11.78
2023-04-21T18:33:38.236Z,11.92
2023-04-21T18:36:05.838Z,11.27
2023-04-21T18:38:33.229Z,12.12
2023-04-21T18:41:00.720Z,12.01
2023-04-21T18:43:27.458Z,12.02
2023-04-21T18:45:54.635Z,12.13
2023-04-21T18:48:21.464Z,11.48
2023-04-21T18:50:48.562Z,10.21
2023-04-21T18:53:15.759Z,10.80
2023-04-21T18:55:42.503Z,10.59
2023-04-21T18:58:09.289Z,10.64
2023-04-21T19:00:38.921Z,10.81
2023-04-21T19:03:06.652Z,11.86
2023-04-21T19:05:35.948Z,10.42
2023-04-21T19:08:03.379Z,8.08
2023-04-21T19:10:32.246Z,7.44
2023-04-21T19:12:59.493Z,7.74
2023-04-21T19:15:26.411Z,7.65
2023-04-21T19:17:53.280Z,7.38
2023-04-21T19:20:20.186Z,7.67
2023-04-21T19:22:47.560Z,7.83
2023-04-21T19:25:14.409Z,7.93
2023-04-21T19:27:41.625Z,7.35
2023-04-21T19:30:09.087Z,7.85
2023-04-21T19:32:35.843Z,7.29
2023-04-21T19:35:02.648Z,6.90
2023-04-21T19:37:29.570Z,7.44
2023-04-21T19:39:56.552Z,8.62
2023-04-21T19:42:23.429Z,7.32
2023-04-21T19:44:50.099Z,7.88
2023-04-21T19:47:17.976Z,8.00
2023-04-21T19:49:45.223Z,6.61
2023-04-21T19:52:12.873Z,7.85
2023-04-21T19:54:39.877Z,6.90
2023-04-21T19:57:07.030Z,6.84
2023-04-21T19:59:34.952Z,5.82
2023-04-21T20:02:02.782Z,5.56
2023-04-21T20:04:29.887Z,6.75
2023-04-21T20:06:56.948Z,6.45
2023-04-21T20:09:23.771Z,6.87
2023-04-21T20:11:50.516Z,7.75
2023-04-21T20:14:18.944Z,8.48
2023-04-21T20:16:46.818Z,8.80
2023-04-21T20:19:15.243Z,7.06
2023-04-21T20:21:43.810Z,8.14
2023-04-21T20:24:10.646Z,7.45
2023-04-21T20:26:37.313Z,8.08
2023-04-21T20:29:04.502Z,9.04
2023-04-21T20:31:31.871Z,8.82
2023-04-21T20:33:58.690Z,7.77
2023-04-21T20:36:27.481Z,9.07
2023-04-21T20:38:54.345Z,7.71
2023-04-21T20:41:23.356Z,7.53
2023-04-21T20:43:50.222Z,7.97
2023-04-21T20:46:18.588Z,8.94
2023-04-21T20:48:45.664Z,8.90
2023-04-21T20:51:13.555Z,8.96
2023-04-21T20:53:40.468Z,8.29
2023-04-21T20:56:07.710Z,6.73
2023-04-21T20:58:36.124Z,7.92
2023-04-21T21:01:03.634Z,7.54
2023-04-21T21:03:31.049Z,7.79
2023-04-21T21:05:58.789Z,7.52
2023-04-21T21:08:25.732Z,6.66
2023-04-21T21:10:52.719Z,6.38
2023-04-21T21:13:19.846Z,6.42
2023-04-21T21:15:47.270Z,6.15
2023-04-21T21:18:14.156Z,7.34
2023-04-21T21:20:41.117Z,6.41
2023-04-21T21:23:08.001Z,5.36
2023-04-21T21:25:35.337Z,5.41
2023-04-21T21:28:02.377Z,6.29
2023-04-21T21:30:29.138Z,5.76
2023-04-21T21:32:56.433Z,7.65
2023-04-21T21:35:23.422Z,4.46
2023-04-21T21:37:50.242Z,5.04
2023-04-21T21:40:17.507Z,5.60
2023-04-21T21:42:44.221Z,6.39
2023-04-21T21:45:11.578Z,4.88
2023-04-21T21:47:41.727Z,4.48
2023-04-21T21:50:12.624Z,4.81
2023-04-21T21:52:39.653Z,3.90
2023-04-21T21:55:07.138Z,4.44
2023-04-21T21:57:34.234Z,4.53
2023-04-21T22:00:02.560Z,4.29
2023-04-21T22:02:32.514Z,4.99
2023-04-21T22:04:59.715Z,4.69
2023-04-21T22:07:26.757Z,4.85
2023-04-21T22:09:53.588Z,5.05
2023-04-21T22:12:20.501Z,3.89
2023-04-21T22:14:47.577Z,4.62
2023-04-21T22:17:15.955Z,4.15
2023-04-21T22:19:43.211Z,4.00
2023-04-21T22:22:10.599Z,2.95
2023-04-21T22:24:37.749Z,4.20
2023-04-21T22:27:04.630Z,3.91
2023-04-21T22:29:31.481Z,2.95
2023-04-21T22:31:58.395Z,4.49
2023-04-21T22:34:25.225Z,4.22
2023-04-21T22:36:53.414Z,3.95
2023-04-21T22:39:20.680Z,4.97
2023-04-21T22:41:48.039Z,5.04
2023-04-21T22:44:14.880Z,4.88
2023-04-21T22:46:42.032Z,5.71
2023-04-21T22:49:09.263Z,5.49
2023-04-21T22:51:36.384Z,5.87
2023-04-21T22:54:03.450Z,6.08
2023-04-21T22:56:31.676Z,5.43
2023-04-21T22:58:58.632Z,1.48
2023-04-21T23:01:25.581Z,3.09
2023-04-21T23:03:52.375Z,3.45
2023-04-21T23:06:19.711Z,5.22
2023-04-21T23:08:46.722Z,5.84
2023-04-21T23:11:13.894Z,5.64
2023-04-21T23:13:40.640Z,6.23
2023-04-21T23:16:07.458Z,6.19
2023-04-21T23:18:34.815Z,3.02
2023-04-21T23:21:01.777Z,2.55
2023-04-21T23:23:28.665Z,4.38
2023-04-21T23:25:55.710Z,4.90
2023-04-21T23:28:23.868Z,5.06
2023-04-21T23:30:51.281Z,5.18
2023-04-21T23:33:18.490Z,3.82
2023-04-21T23:35:45.508Z,2.89
2023-04-21T23:38:12.426Z,2.84
2023-04-21T23:40:39.120Z,3.33
2023-04-21T23:43:06.113Z,3.80
2023-04-21T23:45:33.726Z,2.99
2023-04-21T23:48:00.551Z,4.05
2023-04-21T23:50:27.543Z,2.52
2023-04-21T23:52:54.413Z,1.62
2023-04-21T23:55:21.397Z,3.03
2023-04-21T23:57:48.616Z,4.60
